createdAt,value
2023-10-19T00:00:40.452Z,21.13
2023-10-19T00:03:07.937Z,21.77
2023-10-19T00:05:34.712Z,24.27
2023-10-19T00:08:06.946Z,22.23
2023-10-19T00:10:37.502Z,23.40
2023-10-19T00:13:06.281Z,24.60
2023-10-19T00:15:35.709Z,24.20
2023-10-19T00:18:25.296Z,25.42
2023-10-19T00:20:55.146Z,24.48
2023-10-19T00:23:30.350Z,23.48
2023-10-19T00:25:58.379Z,20.58
2023-10-19T00:28:27.954Z,19.42
2023-10-19T00:31:00.612Z,21.52
2023-10-19T00:33:29.852Z,18.90
2023-10-19T00:36:09.336Z,18.17
2023-10-19T00:38:38.331Z,17.88
2023-10-19T00:41:13.441Z,18.60
2023-10-19T00:43:45.510Z,17.13
2023-10-19T00:46:21.737Z,17.98
2023-10-19T00:49:00.418Z,17.33
2023-10-19T00:51:36.182Z,16.35
2023-10-19T00:54:15.437Z,16.30
2023-10-19T00:56:50.857Z,16.98
2023-10-19T00:59:24.064Z,14.40
2023-10-19T01:01:55.184Z,13.95
2023-10-19T01:04:33.148Z,14.88
2023-10-19T01:07:06.643Z,15.95
2023-10-19T01:09:37.798Z,14.02
2023-10-19T01:12:22.521Z,16.55
2023-10-19T01:15:18.659Z,13.32
2023-10-19T01:17:47.522Z,15.30
2023-10-19T01:20:21.702Z,15.90
2023-10-19T01:22:54.734Z,16.55
2023-10-19T01:25:35.239Z,15.05
2023-10-19T01:28:10.250Z,16.40
2023-10-19T01:30:38.222Z,16.17
2023-10-19T01:33:13.946Z,20.25
2023-10-19T01:36:00.185Z,17.85
2023-10-19T01:38:32.113Z,15.63
2023-10-19T01:41:03.817Z,16.27
2023-10-19T01:43:33.613Z,18.00
2023-10-19T01:46:12.629Z,15.82
2023-10-19T01:48:44.365Z,15.45
2023-10-19T01:51:12.451Z,17.90
2023-10-19T01:53:44.880Z,15.05
2023-10-19T01:56:13.927Z,14.45
2023-10-19T01:58:42.498Z,14.27
2023-10-19T02:01:13.614Z,16.02
2023-10-19T02:03:44.512Z,15.52
2023-10-19T02:06:20.822Z,14.15
2023-10-19T02:09:02.089Z,15.90
2023-10-19T02:11:29.967Z,13.00
2023-10-19T02:14:01.280Z,13.52
2023-10-19T02:16:30.782Z,15.43
2023-10-19T02:18:58.025Z,15.48
2023-10-19T02:21:28.300Z,16.60
2023-10-19T02:23:55.163Z,14.15
2023-10-19T02:26:24.030Z,14.82
2023-10-19T02:28:53.777Z,13.15
2023-10-19T02:31:24.829Z,13.25
2023-10-19T02:34:01.340Z,13.00
2023-10-19T02:36:31.946Z,12.95
2023-10-19T02:41:36.936Z,11.13
2023-10-19T02:44:11.207Z,10.43
2023-10-19T02:46:43.216Z,10.75
2023-10-19T02:49:19.745Z,10.05
2023-10-19T02:51:49.085Z,10.85
2023-10-19T02:54:29.717Z,10.77
2023-10-19T02:57:00.264Z,11.20
2023-10-19T02:59:33.237Z,10.80
2023-10-19T03:02:13.278Z,9.35
2023-10-19T03:07:11.181Z,10.73
2023-10-19T03:09:38.127Z,11.10
2023-10-19T03:12:06.638Z,10.88
2023-10-19T03:14:34.184Z,9.57
2023-10-19T03:17:02.020Z,9.85
2023-10-19T03:19:29.282Z,11.38
2023-10-19T03:22:01.447Z,11.75
2023-10-19T03:24:38.088Z,12.52
2023-10-19T03:27:19.417Z,10.93
2023-10-19T03:29:57.540Z,11.57
2023-10-19T03:32:30.127Z,14.18
2023-10-19T03:34:57.675Z,12.90
2023-10-19T03:37:27.120Z,11.10
2023-10-19T03:39:57.598Z,11.80
2023-10-19T03:42:33.542Z,13.70
2023-10-19T03:45:03.565Z,13.80
2023-10-19T03:47:36.444Z,14.95
2023-10-19T03:50:08.196Z,14.23
2023-10-19T03:52:39.422Z,16.58
2023-10-19T03:55:12.630Z,13.10
2023-10-19T03:57:47.996Z,15.23
2023-10-19T04:00:25.855Z,15.65
2023-10-19T04:02:54.798Z,15.82
2023-10-19T04:05:23.679Z,20.05
2023-10-19T04:07:58.263Z,17.65
2023-10-19T04:10:31.701Z,21.55
2023-10-19T04:13:01.947Z,16.58
2023-10-19T04:15:36.714Z,16.33
2023-10-19T04:18:14.840Z,17.17
2023-10-19T04:20:53.479Z,15.20
2023-10-19T04:23:22.261Z,18.13
2023-10-19T04:25:49.264Z,15.88
2023-10-19T04:28:16.684Z,17.73
2023-10-19T04:30:43.885Z,18.05
2023-10-19T04:33:11.370Z,15.48
2023-10-19T04:35:39.065Z,16.27
2023-10-19T04:38:09.714Z,17.35
2023-10-19T04:40:36.894Z,14.65
2023-10-19T04:43:06.508Z,13.93
2023-10-19T04:45:33.509Z,13.73
2023-10-19T04:48:00.391Z,13.02
2023-10-19T04:50:27.245Z,13.57
2023-10-19T04:52:54.078Z,12.93
2023-10-19T04:55:20.897Z,12.50
2023-10-19T04:57:47.713Z,10.80
2023-10-19T05:00:16.493Z,13.38
2023-10-19T05:02:44.213Z,12.18
2023-10-19T05:05:11.474Z,13.25
2023-10-19T05:07:39.325Z,13.50
2023-10-19T05:10:07.023Z,13.50
2023-10-19T05:12:34.192Z,12.32
2023-10-19T05:15:01.188Z,13.60
2023-10-19T05:17:28.831Z,13.63
2023-10-19T05:19:56.794Z,12.73
2023-10-19T05:22:26.195Z,13.23
2023-10-19T05:24:53.370Z,14.20
2023-10-19T05:27:21.210Z,11.95
2023-10-19T05:29:48.406Z,13.95
2023-10-19T05:32:15.396Z,13.70
2023-10-19T05:34:42.242Z,17.77
2023-10-19T05:37:10.207Z,15.30
2023-10-19T05:39:37.765Z,17.75
2023-10-19T05:42:05.690Z,18.67
2023-10-19T05:44:33.405Z,21.15
2023-10-19T05:47:01.774Z,20.02
2023-10-19T05:49:33.316Z,20.27
2023-10-19T05:52:00.521Z,23.38
2023-10-19T05:54:28.437Z,29.30
2023-10-19T05:56:55.465Z,24.65
2023-10-19T05:59:22.592Z,27.63
2023-10-19T06:01:49.934Z,24.30
2023-10-19T06:04:20.786Z,27.02
2023-10-19T06:06:49.925Z,29.55
2023-10-19T06:09:18.387Z,30.25
2023-10-19T06:11:45.757Z,30.35
2023-10-19T06:14:12.549Z,36.40
2023-10-19T06:16:39.501Z,34.88
2023-10-19T06:19:06.793Z,37.80
2023-10-19T06:21:34.957Z,41.35
2023-10-19T06:24:02.217Z,40.85
2023-10-19T06:26:29.812Z,40.25
2023-10-19T06:29:03.748Z,46.80
2023-10-19T06:31:31.210Z,49.13
2023-10-19T06:33:59.018Z,49.15
2023-10-19T06:36:26.545Z,45.03
2023-10-19T06:38:55.673Z,51.63
2023-10-19T06:41:23.328Z,49.15
2023-10-19T06:43:51.371Z,51.28
2023-10-19T06:46:19.952Z,59.35
2023-10-19T06:48:46.700Z,51.70
2023-10-19T06:51:13.787Z,52.58
2023-10-19T06:53:40.588Z,51.38
2023-10-19T06:56:08.022Z,51.92
2023-10-19T06:58:35.879Z,55.25
2023-10-19T07:01:08.872Z,55.15
2023-10-19T07:03:36.574Z,60.22
2023-10-19T07:06:09.006Z,53.85
2023-10-19T07:08:37.044Z,50.05
2023-10-19T07:11:04.336Z,49.60
2023-10-19T07:13:34.485Z,49.60
2023-10-19T07:16:05.494Z,47.88
2023-10-19T07:18:32.679Z,48.55
2023-10-19T07:21:05.023Z,46.63
2023-10-19T07:23:32.675Z,50.78
2023-10-19T07:26:02.252Z,49.35
2023-10-19T07:28:29.650Z,48.97
2023-10-19T07:30:58.103Z,48.20
2023-10-19T07:33:25.710Z,51.08
2023-10-19T07:35:55.716Z,51.88
2023-10-19T07:38:24.080Z,50.22
2023-10-19T07:40:54.293Z,49.30
2023-10-19T07:43:22.861Z,48.28
2023-10-19T07:45:50.161Z,48.25
2023-10-19T07:48:18.361Z,49.60
2023-10-19T07:50:45.784Z,47.72
2023-10-19T07:53:12.949Z,44.72
2023-10-19T07:55:40.676Z,45.45
2023-10-19T07:58:08.106Z,42.70
2023-10-19T08:00:37.404Z,42.85
2023-10-19T08:03:05.734Z,40.78
2023-10-19T08:05:34.731Z,42.97
2023-10-19T08:08:02.445Z,40.92
2023-10-19T08:10:29.666Z,43.72
2023-10-19T08:12:57.014Z,43.15
2023-10-19T08:15:24.422Z,41.95
2023-10-19T08:17:55.281Z,43.40
2023-10-19T08:20:28.690Z,46.55
2023-10-19T08:22:58.620Z,43.55
2023-10-19T08:25:33.610Z,43.95
2023-10-19T08:28:12.416Z,46.30
2023-10-19T08:30:39.170Z,43.40
2023-10-19T08:33:07.867Z,41.28
2023-10-19T08:35:37.096Z,45.65
2023-10-19T08:38:11.320Z,40.22
2023-10-19T08:40:39.384Z,43.97
2023-10-19T08:43:06.392Z,39.67
2023-10-19T08:45:35.660Z,40.20
2023-10-19T08:48:03.665Z,42.63
2023-10-19T08:50:32.500Z,40.40
2023-10-19T08:53:02.071Z,41.10
2023-10-19T08:58:02.034Z,39.25
2023-10-19T09:00:28.986Z,48.40
2023-10-19T09:02:57.915Z,50.13
2023-10-19T09:05:26.697Z,46.40
2023-10-19T09:08:00.447Z,46.53
2023-10-19T09:10:33.156Z,42.75
2023-10-19T09:13:03.141Z,33.75
2023-10-19T09:15:33.823Z,38.50
2023-10-19T09:18:13.931Z,34.45
2023-10-19T09:20:43.140Z,45.03
2023-10-19T09:23:09.938Z,45.65
2023-10-19T09:25:36.730Z,44.30
2023-10-19T09:28:03.814Z,44.47
2023-10-19T09:30:32.265Z,43.42
2023-10-19T09:33:00.002Z,43.75
2023-10-19T09:35:32.623Z,36.22
2023-10-19T09:38:02.269Z,37.80
2023-10-19T09:40:30.775Z,40.45
2023-10-19T09:42:59.013Z,37.97
2023-10-19T09:45:31.347Z,43.95
2023-10-19T09:48:06.692Z,37.83
2023-10-19T09:50:34.557Z,36.85
2023-10-19T09:53:05.154Z,41.80
2023-10-19T09:55:39.318Z,40.03
2023-10-19T09:58:22.902Z,31.70
2023-10-19T10:00:50.723Z,32.33
2023-10-19T10:03:49.826Z,29.42
2023-10-19T10:06:21.472Z,33.03
2023-10-19T10:08:49.787Z,35.05
2023-10-19T10:11:29.580Z,35.97
2023-10-19T10:13:58.398Z,36.22
2023-10-19T10:16:30.461Z,38.50
2023-10-19T10:19:02.858Z,31.48
2023-10-19T10:21:31.524Z,32.53
2023-10-19T10:24:04.250Z,34.90
2023-10-19T10:26:37.981Z,33.35
2023-10-19T10:29:21.503Z,26.92
2023-10-19T10:31:49.581Z,28.45
2023-10-19T10:34:35.550Z,29.08
2023-10-19T10:37:12.115Z,30.42
2023-10-19T10:39:41.916Z,33.92
2023-10-19T10:42:10.838Z,26.45
2023-10-19T10:44:42.008Z,27.92
2023-10-19T10:47:31.581Z,27.48
2023-10-19T10:50:00.605Z,27.05
2023-10-19T10:52:39.482Z,24.80
2023-10-19T10:55:16.393Z,27.08
2023-10-19T10:57:44.574Z,30.98
2023-10-19T11:00:20.201Z,30.60
2023-10-19T11:03:02.534Z,31.90
2023-10-19T11:05:29.606Z,32.33
2023-10-19T11:08:10.851Z,32.40
2023-10-19T11:10:39.116Z,32.05
2023-10-19T11:13:08.435Z,36.38
2023-10-19T11:15:36.403Z,31.60
2023-10-19T11:18:03.352Z,29.95
2023-10-19T11:20:30.426Z,29.27
2023-10-19T11:22:58.899Z,30.17
2023-10-19T11:25:29.923Z,29.00
2023-10-19T11:28:01.683Z,30.00
2023-10-19T11:30:29.500Z,32.05
2023-10-19T11:33:03.344Z,27.00
2023-10-19T11:35:31.987Z,28.15
2023-10-19T11:38:01.261Z,29.45
2023-10-19T11:40:28.565Z,29.83
2023-10-19T11:43:00.222Z,29.80
2023-10-19T11:45:27.591Z,30.70
2023-10-19T11:47:54.723Z,31.25
2023-10-19T11:50:21.604Z,31.95
2023-10-19T11:52:48.368Z,35.17
2023-10-19T11:55:16.668Z,36.58
2023-10-19T11:57:44.898Z,38.03
2023-10-19T12:00:15.388Z,34.33
2023-10-19T12:02:42.478Z,35.88
2023-10-19T12:05:13.248Z,33.60
2023-10-19T12:07:41.233Z,38.03
2023-10-19T12:10:12.276Z,36.40
2023-10-19T12:12:54.211Z,36.83
2023-10-19T12:15:26.937Z,38.65
2023-10-19T12:17:55.916Z,37.08
2023-10-19T12:20:23.381Z,38.05
2023-10-19T12:22:55.221Z,38.75
2023-10-19T12:25:31.898Z,39.80
2023-10-19T12:28:05.448Z,36.13
2023-10-19T12:30:33.581Z,39.88
2023-10-19T12:33:09.006Z,41.05
2023-10-19T12:35:53.101Z,36.85
2023-10-19T12:38:21.398Z,32.78
2023-10-19T12:40:51.821Z,39.22
2023-10-19T12:43:31.456Z,36.63
2023-10-19T12:45:59.243Z,36.10
2023-10-19T12:48:34.901Z,43.50
2023-10-19T12:51:03.040Z,39.38
2023-10-19T12:53:29.784Z,39.33
2023-10-19T12:55:56.542Z,36.10
2023-10-19T12:58:23.285Z,36.15
2023-10-19T13:00:50.223Z,37.55
2023-10-19T13:03:17.592Z,45.05
2023-10-19T13:05:45.839Z,37.25
2023-10-19T13:08:20.109Z,37.05
2023-10-19T13:10:50.007Z,39.50
2023-10-19T13:13:17.766Z,38.00
2023-10-19T13:15:55.043Z,38.67
2023-10-19T13:18:22.817Z,39.30
2023-10-19T13:20:50.018Z,38.03
2023-10-19T13:23:23.024Z,36.30
2023-10-19T13:25:53.651Z,38.08
2023-10-19T13:28:21.979Z,40.17
2023-10-19T13:30:51.296Z,37.35
2023-10-19T13:33:27.871Z,36.63
2023-10-19T13:35:54.737Z,37.55
2023-10-19T13:38:21.545Z,35.85
2023-10-19T13:40:48.485Z,32.28
2023-10-19T13:43:15.581Z,33.55
2023-10-19T13:45:46.287Z,34.53
2023-10-19T13:48:14.605Z,30.50
2023-10-19T13:50:49.635Z,34.97
2023-10-19T13:53:17.722Z,34.00
2023-10-19T13:55:45.004Z,36.25
2023-10-19T13:58:12.225Z,35.22
2023-10-19T14:00:42.812Z,32.58
2023-10-19T14:03:10.271Z,37.10
2023-10-19T14:05:44.050Z,31.27
2023-10-19T14:08:11.187Z,31.65
2023-10-19T14:10:38.149Z,31.35
2023-10-19T14:13:06.747Z,34.22
2023-10-19T14:15:35.242Z,32.35
2023-10-19T14:18:02.319Z,29.25
2023-10-19T14:20:33.172Z,30.80
2023-10-19T14:23:02.635Z,29.83
2023-10-19T14:25:29.706Z,27.20
2023-10-19T14:28:00.907Z,30.83
2023-10-19T14:30:32.503Z,25.38
2023-10-19T14:32:59.488Z,24.63
2023-10-19T14:35:26.692Z,25.42
2023-10-19T14:38:02.075Z,27.95
2023-10-19T14:40:31.597Z,27.98
2023-10-19T14:42:58.719Z,25.52
2023-10-19T14:45:27.510Z,24.80
2023-10-19T14:48:00.677Z,27.90
2023-10-19T14:50:30.588Z,25.83
2023-10-19T14:52:57.625Z,28.38
2023-10-19T14:55:24.992Z,24.85
2023-10-19T14:57:56.741Z,23.38
2023-10-19T15:00:35.936Z,24.85
2023-10-19T15:03:10.392Z,24.42
2023-10-19T15:05:38.995Z,27.40
2023-10-19T15:08:08.316Z,36.35
2023-10-19T15:10:42.643Z,25.50
2023-10-19T15:13:09.876Z,25.27
2023-10-19T15:15:37.614Z,24.90
2023-10-19T15:18:04.989Z,23.83
2023-10-19T15:20:33.723Z,24.05
2023-10-19T15:23:00.851Z,21.77
2023-10-19T15:25:28.310Z,22.45
2023-10-19T15:27:56.128Z,23.50
2023-10-19T15:30:25.790Z,24.85
2023-10-19T15:32:57.330Z,23.67
2023-10-19T15:35:24.541Z,25.30
2023-10-19T15:37:56.877Z,27.48
2023-10-19T15:40:25.709Z,26.25
2023-10-19T15:42:56.666Z,26.90
2023-10-19T15:47:55.491Z,21.38
2023-10-19T15:50:23.258Z,24.20
2023-10-19T15:52:53.505Z,21.52
2023-10-19T15:55:23.776Z,25.17
2023-10-19T15:57:55.336Z,22.20
2023-10-19T16:00:23.973Z,22.75
2023-10-19T16:02:51.216Z,25.00
2023-10-19T16:05:19.577Z,20.92
2023-10-19T16:07:47.609Z,20.98
2023-10-19T16:10:14.715Z,20.10
2023-10-19T16:12:43.556Z,18.48
2023-10-19T16:15:10.665Z,21.08
2023-10-19T16:17:38.261Z,22.00
2023-10-19T16:20:07.956Z,22.40
2023-10-19T16:22:35.337Z,21.38
2023-10-19T16:25:04.931Z,21.42
2023-10-19T16:27:32.091Z,21.63
2023-10-19T16:29:59.080Z,18.00
2023-10-19T16:32:26.234Z,17.60
2023-10-19T16:34:53.546Z,22.38
2023-10-19T16:37:23.666Z,19.27
2023-10-19T16:39:51.394Z,21.80
2023-10-19T16:42:18.133Z,25.80
2023-10-19T16:44:44.973Z,29.98
2023-10-19T16:47:13.062Z,30.25
2023-10-19T16:49:40.367Z,27.70
2023-10-19T16:52:08.476Z,28.48
2023-10-19T16:54:35.616Z,23.55
2023-10-19T16:57:02.709Z,25.20
2023-10-19T16:59:30.933Z,28.58
2023-10-19T17:01:58.692Z,26.33
2023-10-19T17:04:27.089Z,26.45
2023-10-19T17:06:54.199Z,34.80
2023-10-19T17:09:22.892Z,29.30
2023-10-19T17:11:56.251Z,32.42
2023-10-19T17:14:23.157Z,30.35
2023-10-19T17:16:51.054Z,31.02
2023-10-19T17:19:18.170Z,31.35
2023-10-19T17:21:45.182Z,33.55
2023-10-19T17:24:12.097Z,30.00
2023-10-19T17:26:38.843Z,31.58
2023-10-19T17:29:06.057Z,29.15
2023-10-19T17:31:32.859Z,29.40
2023-10-19T17:33:59.764Z,28.92
2023-10-19T17:36:26.534Z,31.65
2023-10-19T17:38:53.343Z,30.58
2023-10-19T17:41:20.886Z,27.52
2023-10-19T17:43:48.885Z,33.63
2023-10-19T17:46:16.142Z,31.08
2023-10-19T17:48:45.914Z,30.75
2023-10-19T17:51:14.223Z,28.08
2023-10-19T17:53:41.528Z,30.70
2023-10-19T17:56:09.152Z,32.45
2023-10-19T17:58:36.849Z,32.53
2023-10-19T18:01:11.303Z,32.65
2023-10-19T18:03:42.879Z,31.92
2023-10-19T18:06:10.953Z,32.13
2023-10-19T18:08:39.078Z,32.50
2023-10-19T18:11:13.450Z,34.05
2023-10-19T18:13:41.016Z,31.73
2023-10-19T18:16:07.853Z,31.67
2023-10-19T18:18:34.843Z,36.53
2023-10-19T18:21:01.865Z,35.30
2023-10-19T18:23:28.801Z,31.02
2023-10-19T18:25:57.201Z,36.72
2023-10-19T18:28:24.130Z,35.80
2023-10-19T18:31:00.858Z,36.83
2023-10-19T18:33:30.276Z,38.80
2023-10-19T18:36:01.163Z,32.42
2023-10-19T18:38:28.825Z,35.30
2023-10-19T18:41:00.907Z,35.05
2023-10-19T18:43:29.019Z,33.72
2023-10-19T18:45:56.804Z,35.72
2023-10-19T18:48:26.160Z,33.90
2023-10-19T18:51:08.746Z,36.22
2023-10-19T18:53:36.034Z,34.20
2023-10-19T18:56:04.386Z,33.05
2023-10-19T18:58:31.328Z,34.42
2023-10-19T19:01:00.420Z,32.15
2023-10-19T19:03:27.665Z,32.80
2023-10-19T19:05:58.767Z,31.73
2023-10-19T19:08:34.613Z,33.08
2023-10-19T19:11:15.830Z,33.10
2023-10-19T19:13:43.697Z,34.58
2023-10-19T19:16:12.668Z,29.73
2023-10-19T19:18:39.920Z,35.30
2023-10-19T19:21:11.052Z,34.63
2023-10-19T19:23:40.572Z,35.92
2023-10-19T19:26:08.866Z,30.73
2023-10-19T19:28:40.293Z,31.08
2023-10-19T19:31:07.376Z,33.63
2023-10-19T19:33:34.257Z,32.80
2023-10-19T19:36:01.084Z,31.80
2023-10-19T19:38:27.846Z,32.28
2023-10-19T19:40:54.888Z,31.60
2023-10-19T19:43:23.411Z,28.60
2023-10-19T19:45:50.166Z,32.05
2023-10-19T19:48:22.490Z,33.08
2023-10-19T19:50:49.506Z,32.15
2023-10-19T19:53:16.381Z,34.55
2023-10-19T19:55:43.658Z,33.30
2023-10-19T19:58:12.159Z,37.78
2023-10-19T20:00:39.162Z,35.00
2023-10-19T20:03:06.087Z,33.38
2023-10-19T20:05:34.029Z,31.98
2023-10-19T20:08:05.042Z,32.55
2023-10-19T20:10:38.557Z,35.35
2023-10-19T20:13:06.667Z,31.35
2023-10-19T20:15:35.012Z,32.60
2023-10-19T20:18:03.171Z,32.22
2023-10-19T20:20:30.445Z,31.75
2023-10-19T20:23:00.912Z,35.40
2023-10-19T20:25:31.264Z,31.70
2023-10-19T20:28:05.714Z,33.70
2023-10-19T20:30:34.815Z,29.63
2023-10-19T20:33:01.884Z,33.05
2023-10-19T20:35:30.998Z,29.45
2023-10-19T20:37:57.921Z,32.95
2023-10-19T20:40:24.882Z,29.52
2023-10-19T20:42:55.924Z,34.88
2023-10-19T20:45:23.856Z,29.73
2023-10-19T20:47:53.047Z,31.38
2023-10-19T20:50:21.084Z,30.38
2023-10-19T20:52:47.804Z,32.72
2023-10-19T20:55:14.531Z,36.65
2023-10-19T20:57:41.456Z,34.80
2023-10-19T21:00:10.187Z,35.67
2023-10-19T21:02:37.700Z,42.92
2023-10-19T21:05:06.548Z,39.00
2023-10-19T21:07:34.193Z,45.90
2023-10-19T21:10:00.941Z,46.28
2023-10-19T21:12:27.787Z,42.08
2023-10-19T21:14:54.602Z,42.85
2023-10-19T21:17:21.408Z,44.85
2023-10-19T21:19:48.227Z,43.58
2023-10-19T21:22:15.276Z,44.55
2023-10-19T21:24:42.697Z,40.88
2023-10-19T21:27:11.192Z,37.72
2023-10-19T21:29:37.935Z,40.35
2023-10-19T21:32:05.093Z,39.40
2023-10-19T21:34:32.087Z,41.60
2023-10-19T21:36:59.021Z,38.33
2023-10-19T21:39:25.740Z,43.50
2023-10-19T21:41:52.497Z,43.47
2023-10-19T21:44:19.307Z,40.20
2023-10-19T21:46:46.136Z,45.03
2023-10-19T21:49:13.027Z,46.13
2023-10-19T21:51:41.372Z,47.47
2023-10-19T21:54:09.971Z,45.58
2023-10-19T21:56:36.994Z,60.33
2023-10-19T21:59:04.779Z,48.33
2023-10-19T22:01:33.168Z,48.92
2023-10-19T22:04:00.890Z,46.08
2023-10-19T22:06:27.733Z,64.80
2023-10-19T22:08:54.776Z,63.22
2023-10-19T22:11:21.612Z,59.00
2023-10-19T22:13:48.330Z,48.97
2023-10-19T22:16:15.203Z,55.72
2023-10-19T22:18:41.905Z,57.83
2023-10-19T22:21:08.671Z,53.22
2023-10-19T22:23:35.416Z,71.93
2023-10-19T22:26:02.266Z,55.40
2023-10-19T22:28:28.985Z,54.45
2023-10-19T22:30:55.957Z,52.33
2023-10-19T22:33:22.734Z,51.33
2023-10-19T22:35:50.608Z,49.80
2023-10-19T22:38:17.326Z,46.30
2023-10-19T22:40:44.844Z,46.80
2023-10-19T22:43:11.544Z,44.00
2023-10-19T22:45:39.409Z,39.28
2023-10-19T22:48:07.977Z,45.42
2023-10-19T22:50:35.479Z,47.60
2023-10-19T22:53:02.503Z,47.05
2023-10-19T22:55:29.681Z,49.35
2023-10-19T22:57:56.360Z,44.08
2023-10-19T23:00:23.183Z,46.83
2023-10-19T23:02:50.019Z,49.75
2023-10-19T23:05:17.363Z,46.30
2023-10-19T23:07:45.811Z,45.80
2023-10-19T23:10:13.989Z,49.72
2023-10-19T23:12:42.275Z,46.97
2023-10-19T23:15:12.799Z,55.72
2023-10-19T23:17:43.561Z,48.97
2023-10-19T23:20:29.227Z,48.65
2023-10-19T23:22:58.089Z,45.22
2023-10-19T23:25:25.039Z,47.42
2023-10-19T23:27:51.770Z,47.13
2023-10-19T23:30:20.383Z,42.67
2023-10-19T23:32:48.192Z,53.60
2023-10-19T23:35:15.789Z,44.70
2023-10-19T23:37:43.165Z,49.85
2023-10-19T23:40:13.564Z,46.20
2023-10-19T23:42:41.212Z,45.30
2023-10-19T23:45:12.537Z,45.53
2023-10-19T23:47:39.435Z,47.13
2023-10-19T23:50:07.995Z,51.38
2023-10-19T23:52:35.565Z,47.90
2023-10-19T23:55:02.638Z,54.25
2023-10-19T23:57:29.411Z,45.72
2023-10-19T23:59:58.908Z,46.88
